^^
Your Local Weather - Clay, NY Station Historical Data
Daily Summary for December 25, 2017 Units:  English    Metric   Both
« Previous Day
Next Day »
Daily Weekly Monthly Yearly Custom
  High: Low: Average:
Temperature: 33.4 °F 19.4 °F 26.2 °F
Dew Point: 30.6 °F 7.3 °F 17.8 °F
Humidity: 92% 42% 72%
Wind Speed: 11.0mph 0.0mph 5.6mph
Wind Gust: 18.0mph - -
Wind- - SW
Pressure: 30.10 in 29.58 in -
Precipitation: 0.00 in    
Historical Graphs
 
 
Tabular Data for December 25, 2017
Time Temperature Dew Point Pressure Wind Wind Speed Wind Gust Humidity Rainfall Rate (Hourly) solar
00:00 26.0 °F 23.7 °F 29.73 in SE 4.0 mph 9.0 mph 91% 0.00 in 0 W/m2
00:08 25.9 °F 23.6 °F 29.72 in ESE 3.0 mph 9.0 mph 91% 0.00 in 0 W/m2
00:14 25.9 °F 23.6 °F 29.71 in East 3.0 mph 5.0 mph 91% 0.00 in 0 W/m2
00:20 25.8 °F 23.8 °F 29.71 in ENE 4.0 mph 4.0 mph 92% 0.00 in 0 W/m2
00:26 25.8 °F 23.8 °F 29.70 in ESE 4.0 mph 5.0 mph 92% 0.00 in 0 W/m2
00:32 25.9 °F 23.9 °F 29.70 in ESE 4.0 mph 7.0 mph 92% 0.00 in 0 W/m2
00:38 25.8 °F 23.8 °F 29.69 in ESE 4.0 mph 7.0 mph 92% 0.00 in 0 W/m2
00:44 25.9 °F 23.9 °F 29.68 in East 4.0 mph 4.0 mph 92% 0.00 in 0 W/m2
00:50 25.8 °F 23.8 °F 29.68 in East 3.0 mph 3.0 mph 92% 0.00 in 0 W/m2
00:56 25.9 °F 23.9 °F 29.68 in East 4.0 mph 4.0 mph 92% 0.00 in 0 W/m2
01:02 25.9 °F 23.9 °F 29.67 in SE 3.0 mph 6.0 mph 92% 0.00 in 0 W/m2
01:08 25.9 °F 23.9 °F 29.67 in ENE 3.0 mph 6.0 mph 92% 0.00 in 0 W/m2
01:14 25.9 °F 23.9 °F 29.66 in NE 3.0 mph 4.0 mph 92% 0.00 in 0 W/m2
01:20 25.9 °F 23.9 °F 29.66 in East 4.0 mph 4.0 mph 92% 0.00 in 0 W/m2
01:26 25.9 °F 23.9 °F 29.66 in SE 3.0 mph 4.0 mph 92% 0.00 in 0 W/m2
01:32 25.9 °F 23.9 °F 29.66 in ESE 2.0 mph 3.0 mph 92% 0.00 in 0 W/m2
01:38 26.0 °F 24.0 °F 29.66 in ENE 2.0 mph 3.0 mph 92% 0.00 in 0 W/m2
01:44 25.9 °F 23.9 °F 29.65 in SE 2.0 mph 3.0 mph 92% 0.00 in 0 W/m2
01:50 25.9 °F 23.9 °F 29.65 in ESE 2.0 mph 2.0 mph 92% 0.00 in 0 W/m2
01:52 26.0 °F 24.0 °F 29.65 in ESE 2.0 mph 3.0 mph 92% 0.00 in 0 W/m2
01:58 26.0 °F 24.0 °F 29.65 in ENE 2.0 mph 3.0 mph 92% 0.00 in 0 W/m2
02:04 26.0 °F 24.0 °F 29.65 in East 2.0 mph 2.0 mph 92% 0.00 in 0 W/m2
02:10 26.0 °F 24.0 °F 29.64 in ENE 2.0 mph 7.0 mph 92% 0.00 in 0 W/m2
02:16 26.1 °F 24.1 °F 29.64 in East 1.0 mph 7.0 mph 92% 0.00 in 0 W/m2
02:22 26.2 °F 24.2 °F 29.64 in ENE 2.0 mph 3.0 mph 92% 0.00 in 0 W/m2
02:28 26.2 °F 24.2 °F 29.64 in East 2.0 mph 6.0 mph 92% 0.00 in 0 W/m2
02:34 26.3 °F 24.3 °F 29.63 in ENE 3.0 mph 3.0 mph 92% 0.00 in 0 W/m2
02:40 26.3 °F 24.3 °F 29.62 in ENE 2.0 mph 2.0 mph 92% 0.00 in 0 W/m2
02:46 26.3 °F 24.3 °F 29.62 in SE 2.0 mph 3.0 mph 92% 0.00 in 0 W/m2
02:52 26.4 °F 24.4 °F 29.62 in ENE 3.0 mph 3.0 mph 92% 0.00 in 0 W/m2
02:58 26.5 °F 24.5 °F 29.61 in ENE 2.0 mph 4.0 mph 92% 0.00 in 0 W/m2
03:04 26.7 °F 24.7 °F 29.61 in East 2.0 mph 2.0 mph 92% 0.00 in 0 W/m2
03:10 26.8 °F 24.8 °F 29.61 in ESE 1.0 mph 1.0 mph 92% 0.00 in 0 W/m2
03:16 26.9 °F 24.9 °F 29.61 in SSE 1.0 mph 3.0 mph 92% 0.00 in 0 W/m2
03:22 27.0 °F 25.0 °F 29.61 in SSE 2.0 mph 3.0 mph 92% 0.00 in 0 W/m2
03:28 27.2 °F 25.2 °F 29.61 in SSE 3.0 mph 6.0 mph 92% 0.00 in 0 W/m2
03:34 27.3 °F 25.3 °F 29.60 in SSE 2.0 mph 2.0 mph 92% 0.00 in 0 W/m2
03:40 27.7 °F 25.7 °F 29.60 in SE 2.0 mph 2.0 mph 92% 0.00 in 0 W/m2
03:46 28.0 °F 26.0 °F 29.59 in ESE 2.0 mph 2.0 mph 92% 0.00 in 0 W/m2
03:52 28.2 °F 26.2 °F 29.59 in SE 1.0 mph 4.0 mph 92% 0.00 in 0 W/m2
03:58 28.3 °F 26.3 °F 29.59 in SE 1.0 mph 4.0 mph 92% 0.00 in 0 W/m2
04:04 28.1 °F 26.1 °F 29.59 in SE 1.0 mph 1.0 mph 92% 0.00 in 0 W/m2
04:10 28.2 °F 26.2 °F 29.59 in Calm   1.0 mph 92% 0.00 in 0 W/m2
04:12 28.1 °F 26.1 °F 29.58 in Calm   1.0 mph 92% 0.00 in 0 W/m2
04:18 28.1 °F 26.1 °F 29.58 in Calm   1.0 mph 92% 0.00 in 0 W/m2
04:24 28.2 °F 26.2 °F 29.58 in Calm     92% 0.00 in 0 W/m2
04:30 28.0 °F 26.0 °F 29.58 in Calm     92% 0.00 in 0 W/m2
04:36 29.6 °F 27.6 °F 29.58 in WSW 2.0 mph 2.0 mph 92% 0.00 in 0 W/m2
04:38 30.2 °F 28.2 °F 29.58 in SSW 3.0 mph 4.0 mph 92% 0.00 in 0 W/m2
04:44 31.8 °F 29.7 °F 29.58 in SW 4.0 mph 6.0 mph 92% 0.00 in 0 W/m2
04:50 32.9 °F 30.6 °F 29.58 in SW 4.0 mph 6.0 mph 91% 0.00 in 0 W/m2
04:56 33.1 °F 30.2 °F 29.59 in WSW 4.0 mph 6.0 mph 89% 0.00 in 0 W/m2
05:02 33.0 °F 29.8 °F 29.59 in NW 2.0 mph 3.0 mph 88% 0.00 in 0 W/m2
05:08 31.8 °F 28.4 °F 29.59 in NW 1.0 mph 3.0 mph 87% 0.00 in 0 W/m2
05:14 31.2 °F 28.1 °F 29.59 in WSW 1.0 mph 1.0 mph 88% 0.00 in 0 W/m2
05:20 31.5 °F 28.6 °F 29.59 in WSW 1.0 mph 2.0 mph 89% 0.00 in 0 W/m2
05:26 32.3 °F 29.4 °F 29.59 in WSW 1.0 mph 2.0 mph 89% 0.00 in 0 W/m2
05:32 32.9 °F 29.7 °F 29.59 in WSW 2.0 mph 2.0 mph 88% 0.00 in 0 W/m2
05:38 33.2 °F 29.8 °F 29.59 in North 3.0 mph 5.0 mph 87% 0.00 in 0 W/m2
05:46 33.2 °F 29.5 °F 29.59 in SW 4.0 mph 6.0 mph 86% 0.00 in 0 W/m2
05:52 33.4 °F 29.1 °F 29.59 in West 4.0 mph 4.0 mph 84% 0.00 in 0 W/m2
05:58 33.4 °F 29.1 °F 29.60 in WSW 4.0 mph 7.0 mph 84% 0.00 in 0 W/m2
06:04 33.3 °F 28.7 °F 29.61 in West 4.0 mph 10.0 mph 83% 0.00 in 0 W/m2
06:10 32.9 °F 27.1 °F 29.61 in WSW 7.0 mph 10.0 mph 79% 0.00 in 0 W/m2
06:16 32.6 °F 25.9 °F 29.61 in WSW 8.0 mph 11.0 mph 76% 0.00 in 0 W/m2
06:22 32.4 °F 25.4 °F 29.62 in WNW 9.0 mph 10.0 mph 75% 0.00 in 0 W/m2
06:28 31.9 °F 24.6 °F 29.62 in WSW 9.0 mph 10.0 mph 74% 0.00 in 0 W/m2
06:34 31.5 °F 24.2 °F 29.62 in South 9.0 mph 15.0 mph 74% 0.00 in 0 W/m2
06:40 31.2 °F 23.5 °F 29.62 in West 9.0 mph 9.0 mph 73% 0.00 in 0 W/m2
06:46 31.2 °F 23.5 °F 29.62 in West 8.0 mph 9.0 mph 73% 0.00 in 0 W/m2
06:52 31.3 °F 23.6 °F 29.62 in WSW 7.0 mph 7.0 mph 73% 0.00 in 0 W/m2
06:58 31.0 °F 24.0 °F 29.62 in NW 9.0 mph 12.0 mph 75% 0.00 in 0 W/m2
07:06 30.4 °F 24.4 °F 29.62 in West 9.0 mph 16.0 mph 78% 0.00 in 0 W/m2
07:12 30.5 °F 24.1 °F 29.62 in West 9.0 mph 12.0 mph 77% 0.00 in 0 W/m2
07:18 30.5 °F 23.5 °F 29.63 in WSW 9.0 mph 12.0 mph 75% 0.00 in 0 W/m2
07:24 30.7 °F 23.7 °F 29.64 in West 8.0 mph 15.0 mph 75% 0.00 in 0 W/m2
07:26 30.6 °F 23.6 °F 29.63 in SSW 9.0 mph 15.0 mph 75% 0.00 in 0 W/m2
07:28 30.5 °F 23.8 °F 29.64 in SW 8.0 mph 15.0 mph 76% 0.00 in 0 W/m2
07:40 30.4 °F 23.7 °F 29.64 in WSW 6.0 mph 6.0 mph 76% 0.00 in 0 W/m2
07:42 30.5 °F 23.8 °F 29.64 in West 6.0 mph 6.0 mph 76% 0.00 in 0 W/m2
07:48 30.4 °F 23.7 °F 29.64 in West 6.0 mph 9.0 mph 76% 0.00 in 0 W/m2
07:50 30.3 °F 24.0 °F 29.64 in WSW 6.0 mph 9.0 mph 77% 0.00 in 5 W/m2
07:56 30.0 °F 24.0 °F 29.64 in WSW 5.0 mph 9.0 mph 78% 0.00 in 7 W/m2
08:02 29.7 °F 24.0 °F 29.64 in WSW 7.0 mph 9.0 mph 79% 0.00 in 9 W/m2
08:08 29.5 °F 24.1 °F 29.65 in WSW 8.0 mph 9.0 mph 80% 0.00 in 14 W/m2
08:12 29.4 °F 24.0 °F 29.65 in West 7.0 mph 9.0 mph 80% 0.00 in 14 W/m2
08:18 29.3 °F 23.9 °F 29.65 in WSW 8.0 mph 12.0 mph 80% 0.00 in 9 W/m2
08:26 29.1 °F 24.0 °F 29.67 in WNW 6.0 mph 13.0 mph 81% 0.00 in 9 W/m2
08:30 28.8 °F 24.3 °F 29.67 in West 5.0 mph 6.0 mph 83% 0.00 in 12 W/m2
08:36 28.3 °F 24.1 °F 29.67 in West 6.0 mph 9.0 mph 84% 0.00 in 16 W/m2
08:42 27.7 °F 23.8 °F 29.68 in WNW 8.0 mph 9.0 mph 85% 0.00 in 23 W/m2
08:48 27.3 °F 23.4 °F 29.68 in SSW 7.0 mph 12.0 mph 85% 0.00 in 25 W/m2
08:54 26.9 °F 23.0 °F 29.69 in West 7.0 mph 8.0 mph 85% 0.00 in 25 W/m2
09:00 26.7 °F 22.8 °F 29.69 in WSW 7.0 mph 8.0 mph 85% 0.00 in 26 W/m2
09:06 26.6 °F 22.4 °F 29.70 in WNW 7.0 mph 8.0 mph 84% 0.00 in 44 W/m2
09:12 26.7 °F 22.5 °F 29.70 in WNW 6.0 mph 7.0 mph 84% 0.00 in 46 W/m2
09:18 26.5 °F 22.0 °F 29.70 in NW 6.0 mph 9.0 mph 83% 0.00 in 58 W/m2
09:20 26.5 °F 22.0 °F 29.71 in WNW 6.0 mph 6.0 mph 83% 0.00 in 60 W/m2
09:26 26.3 °F 22.1 °F 29.71 in WSW 7.0 mph 7.0 mph 84% 0.00 in 60 W/m2
09:32 26.2 °F 22.3 °F 29.72 in West 6.0 mph 6.0 mph 85% 0.00 in 60 W/m2
09:38 26.1 °F 22.5 °F 29.72 in SW 6.0 mph 6.0 mph 86% 0.00 in 65 W/m2
09:44 26.0 °F 22.4 °F 29.72 in WNW 6.0 mph 9.0 mph 86% 0.00 in 62 W/m2
09:50 26.1 °F 22.5 °F 29.72 in NNW 6.0 mph 6.0 mph 86% 0.00 in 74 W/m2
09:56 26.4 °F 22.2 °F 29.73 in West 7.0 mph 13.0 mph 84% 0.00 in 83 W/m2
10:02 26.3 °F 22.1 °F 29.73 in West 8.0 mph 8.0 mph 84% 0.00 in 97 W/m2
10:08 26.3 °F 22.1 °F 29.74 in West 7.0 mph 8.0 mph 84% 0.00 in 109 W/m2
10:14 26.6 °F 22.1 °F 29.75 in West 7.0 mph 9.0 mph 83% 0.00 in 116 W/m2
10:20 27.0 °F 21.9 °F 29.75 in WNW 7.0 mph 7.0 mph 81% 0.00 in 121 W/m2
10:24 27.1 °F 22.0 °F 29.75 in WNW 6.0 mph 7.0 mph 81% 0.00 in 134 W/m2
10:30 27.3 °F 21.9 °F 29.75 in WSW 7.0 mph 11.0 mph 80% 0.00 in 123 W/m2
10:36 27.4 °F 21.7 °F 29.75 in West 7.0 mph 11.0 mph 79% 0.00 in 121 W/m2
10:42 27.6 °F 21.9 °F 29.75 in SSW 7.0 mph 7.0 mph 79% 0.00 in 163 W/m2
10:48 27.7 °F 22.0 °F 29.75 in West 8.0 mph 13.0 mph 79% 0.00 in 130 W/m2
10:54 27.7 °F 22.0 °F 29.75 in SW 8.0 mph 11.0 mph 79% 0.00 in 167 W/m2
11:00 27.7 °F 22.0 °F 29.75 in SW 9.0 mph 14.0 mph 79% 0.00 in 200 W/m2
11:06 27.6 °F 22.2 °F 29.75 in SW 10.0 mph 14.0 mph 80% 0.00 in 178 W/m2
11:10 27.8 °F 21.8 °F 29.75 in SW 10.0 mph 10.0 mph 78% 0.00 in 190 W/m2
11:18 28.1 °F 21.8 °F 29.75 in South 9.0 mph 11.0 mph 77% 0.00 in 207 W/m2
11:24 28.3 °F 21.1 °F 29.76 in West 8.0 mph 9.0 mph 74% 0.00 in 195 W/m2
11:30 28.5 °F 20.9 °F 29.76 in SW 8.0 mph 9.0 mph 73% 0.00 in 241 W/m2
11:36 28.1 °F 20.2 °F 29.76 in West 9.0 mph 11.0 mph 72% 0.00 in 148 W/m2
11:42 27.4 °F 20.2 °F 29.77 in West 11.0 mph 13.0 mph 74% 0.00 in 146 W/m2
11:48 27.2 °F 20.0 °F 29.76 in West 10.0 mph 16.0 mph 74% 0.00 in 176 W/m2
11:50 27.1 °F 20.2 °F 29.77 in West 10.0 mph 10.0 mph 75% 0.00 in 111 W/m2
11:52 27.1 °F 20.2 °F 29.77 in NW 9.0 mph 10.0 mph 75% 0.00 in 144 W/m2
11:58 26.5 °F 19.6 °F 29.77 in WNW 10.0 mph 13.0 mph 75% 0.00 in 193 W/m2
12:04 27.0 °F 19.8 °F 29.77 in West 10.0 mph 11.0 mph 74% 0.00 in 125 W/m2
12:10 27.4 °F 19.2 °F 29.77 in WNW 9.0 mph 9.0 mph 71% 0.00 in 269 W/m2
12:16 27.2 °F 18.7 °F 29.78 in West 9.0 mph 9.0 mph 70% 0.00 in 176 W/m2
12:22 26.9 °F 17.4 °F 29.78 in WSW 9.0 mph 9.0 mph 67% 0.00 in 192 W/m2
12:30 27.3 °F 16.7 °F 29.78 in West 9.0 mph 9.0 mph 64% 0.00 in 278 W/m2
12:34 27.6 °F 16.3 °F 29.78 in West 9.0 mph 9.0 mph 62% 0.00 in 264 W/m2
12:40 27.4 °F 15.3 °F 29.79 in WSW 10.0 mph 10.0 mph 60% 0.00 in 185 W/m2
12:46 27.3 °F 14.5 °F 29.79 in WNW 9.0 mph 10.0 mph 58% 0.00 in 197 W/m2
12:52 27.8 °F 13.7 °F 29.79 in WNW 8.0 mph 12.0 mph 55% 0.00 in 492 W/m2
12:58 28.3 °F 13.8 °F 29.79 in WNW 9.0 mph 12.0 mph 54% 0.00 in 413 W/m2
13:04 28.2 °F 12.8 °F 29.79 in West 9.0 mph 9.0 mph 52% 0.00 in 401 W/m2
13:10 27.8 °F 12.9 °F 29.79 in West 10.0 mph 10.0 mph 53% 0.00 in 403 W/m2
13:16 28.1 °F 12.3 °F 29.80 in West 9.0 mph 10.0 mph 51% 0.00 in 396 W/m2
13:22 28.2 °F 12.4 °F 29.80 in West 8.0 mph 11.0 mph 51% 0.00 in 394 W/m2
13:28 28.3 °F 12.0 °F 29.81 in SSE 7.0 mph 15.0 mph 50% 0.00 in 388 W/m2
13:34 27.9 °F 11.6 °F 29.80 in WNW 9.0 mph 13.0 mph 50% 0.00 in 383 W/m2
13:40 28.3 °F 12.5 °F 29.81 in WSW 8.0 mph 8.0 mph 51% 0.00 in 380 W/m2
13:46 28.2 °F 11.0 °F 29.81 in NW 7.0 mph 8.0 mph 48% 0.00 in 373 W/m2
13:52 28.1 °F 10.9 °F 29.81 in WSW 8.0 mph 8.0 mph 48% 0.00 in 366 W/m2
13:58 28.2 °F 11.0 °F 29.81 in WNW 7.0 mph 8.0 mph 48% 0.00 in 359 W/m2
14:04 28.2 °F 11.0 °F 29.81 in SW 7.0 mph 9.0 mph 48% 0.00 in 353 W/m2
14:08 28.3 °F 10.1 °F 29.82 in WSW 8.0 mph 9.0 mph 46% 0.00 in 348 W/m2
14:16 27.9 °F 8.3 °F 29.82 in WSW 8.0 mph 11.0 mph 43% 0.00 in 336 W/m2
14:22 27.8 °F 9.2 °F 29.83 in West 8.0 mph 9.0 mph 45% 0.00 in 325 W/m2
14:28 28.2 °F 9.0 °F 29.83 in WNW 7.0 mph 9.0 mph 44% 0.00 in 316 W/m2
14:34 28.0 °F 8.9 °F 29.83 in WSW 6.0 mph 11.0 mph 44% 0.00 in 311 W/m2
14:40 27.5 °F 7.9 °F 29.83 in WNW 9.0 mph 9.0 mph 43% 0.00 in 297 W/m2
14:46 27.4 °F 7.3 °F 29.83 in WNW 9.0 mph 18.0 mph 42% 0.00 in 290 W/m2
14:52 27.5 °F 7.9 °F 29.84 in NW 8.0 mph 8.0 mph 43% 0.00 in 276 W/m2
14:58 27.8 °F 9.2 °F 29.84 in WSW 6.0 mph 8.0 mph 45% 0.00 in 271 W/m2
15:04 28.0 °F 9.4 °F 29.84 in WSW 5.0 mph 6.0 mph 45% 0.00 in 253 W/m2
15:10 27.4 °F 9.3 °F 29.84 in West 7.0 mph 11.0 mph 46% 0.00 in 239 W/m2
15:16 27.0 °F 8.9 °F 29.85 in NW 8.0 mph 11.0 mph 46% 0.00 in 227 W/m2
15:22 26.6 °F 9.5 °F 29.86 in SW 8.0 mph 13.0 mph 48% 0.00 in 213 W/m2
15:28 26.5 °F 9.4 °F 29.86 in WNW 8.0 mph 13.0 mph 48% 0.00 in 197 W/m2
15:34 26.3 °F 9.7 °F 29.87 in West 7.0 mph 8.0 mph 49% 0.00 in 183 W/m2
15:40 26.3 °F 9.7 °F 29.87 in NW 7.0 mph 11.0 mph 49% 0.00 in 160 W/m2
15:42 26.2 °F 9.6 °F 29.88 in WNW 7.0 mph 11.0 mph 49% 0.00 in 151 W/m2
15:50 26.0 °F 9.4 °F 29.88 in WNW 7.0 mph 10.0 mph 49% 0.00 in 123 W/m2
15:56 25.8 °F 9.7 °F 29.89 in West 8.0 mph 11.0 mph 50% 0.00 in 23 W/m2
16:02 25.5 °F 9.9 °F 29.90 in WNW 8.0 mph 9.0 mph 51% 0.00 in 19 W/m2
16:04 25.5 °F 9.9 °F 29.89 in WNW 8.0 mph 9.0 mph 51% 0.00 in 19 W/m2
16:10 25.3 °F 10.1 °F 29.90 in WSW 6.0 mph 6.0 mph 52% 0.00 in 18 W/m2
16:18 25.1 °F 10.3 °F 29.90 in West 5.0 mph 6.0 mph 53% 0.00 in 12 W/m2
16:24 24.9 °F 10.2 °F 29.91 in WSW 4.0 mph 7.0 mph 53% 0.00 in 11 W/m2
16:30 24.7 °F 9.1 °F 29.91 in West 5.0 mph 13.0 mph 51% 0.00 in 7 W/m2
16:36 24.6 °F 9.5 °F 29.92 in SW 6.0 mph 13.0 mph 52% 0.00 in 5 W/m2
16:42 24.5 °F 9.4 °F 29.92 in West 7.0 mph 8.0 mph 52% 0.00 in 0 W/m2
16:44 24.4 °F 9.3 °F 29.92 in West 7.0 mph 8.0 mph 52% 0.00 in 0 W/m2
16:50 24.3 °F 9.6 °F 29.93 in West 6.0 mph 6.0 mph 53% 0.00 in 0 W/m2
16:54 24.1 °F 9.4 °F 29.93 in WSW 5.0 mph 6.0 mph 53% 0.00 in 0 W/m2
17:00 24.0 °F 9.3 °F 29.93 in SSW 4.0 mph 5.0 mph 53% 0.00 in 0 W/m2
17:06 23.9 °F 9.2 °F 29.93 in West 4.0 mph 5.0 mph 53% 0.00 in 0 W/m2
17:12 23.9 °F 9.2 °F 29.94 in WSW 4.0 mph 6.0 mph 53% 0.00 in 0 W/m2
17:18 23.7 °F 9.0 °F 29.95 in West 4.0 mph 7.0 mph 53% 0.00 in 0 W/m2
17:24 23.7 °F 9.0 °F 29.95 in WSW 4.0 mph 6.0 mph 53% 0.00 in 0 W/m2
17:26 23.6 °F 8.9 °F 29.95 in West 4.0 mph 6.0 mph 53% 0.00 in 0 W/m2
17:32 23.7 °F 8.6 °F 29.95 in WNW 5.0 mph 5.0 mph 52% 0.00 in 0 W/m2
17:38 23.6 °F 8.5 °F 29.96 in West 5.0 mph 6.0 mph 52% 0.00 in 0 W/m2
17:44 23.5 °F 8.4 °F 29.97 in West 5.0 mph 8.0 mph 52% 0.00 in 0 W/m2
17:50 23.4 °F 8.3 °F 29.97 in WSW 5.0 mph 5.0 mph 52% 0.00 in 0 W/m2
17:52 23.3 °F 7.8 °F 29.97 in WNW 5.0 mph 5.0 mph 51% 0.00 in 0 W/m2
17:58 23.3 °F 7.8 °F 29.97 in WSW 5.0 mph 14.0 mph 51% 0.00 in 0 W/m2
18:04 23.3 °F 7.4 °F 29.98 in SW 5.0 mph 8.0 mph 50% 0.00 in 0 W/m2
18:10 23.3 °F 7.4 °F 29.98 in WSW 5.0 mph 8.0 mph 50% 0.00 in 0 W/m2
18:16 23.3 °F 7.4 °F 29.98 in West 6.0 mph 8.0 mph 50% 0.00 in 0 W/m2
18:22 23.4 °F 7.5 °F 29.98 in West 6.0 mph 8.0 mph 50% 0.00 in 0 W/m2
18:28 23.3 °F 7.8 °F 29.99 in WSW 5.0 mph 8.0 mph 51% 0.00 in 0 W/m2
18:34 23.2 °F 8.2 °F 29.99 in WSW 4.0 mph 8.0 mph 52% 0.00 in 0 W/m2
18:40 23.1 °F 8.5 °F 30.00 in SW 5.0 mph 9.0 mph 53% 0.00 in 0 W/m2
18:46 22.9 °F 8.7 °F 30.00 in WSW 6.0 mph 12.0 mph 54% 0.00 in 0 W/m2
18:52 22.7 °F 8.9 °F 30.00 in SSW 5.0 mph 7.0 mph 55% 0.00 in 0 W/m2
18:58 22.8 °F 9.4 °F 30.01 in WSW 5.0 mph 7.0 mph 56% 0.00 in 0 W/m2
19:04 22.9 °F 9.1 °F 30.01 in West 6.0 mph 12.0 mph 55% 0.00 in 0 W/m2
19:10 22.8 °F 9.4 °F 30.01 in West 5.0 mph 9.0 mph 56% 0.00 in 0 W/m2
19:16 22.8 °F 9.4 °F 30.01 in WSW 5.0 mph 9.0 mph 56% 0.00 in 0 W/m2
19:22 22.8 °F 9.8 °F 30.01 in West 3.0 mph 4.0 mph 57% 0.00 in 0 W/m2
19:26 22.8 °F 9.8 °F 30.01 in SW 4.0 mph 5.0 mph 57% 0.00 in 0 W/m2
19:32 22.9 °F 9.9 °F 30.01 in WSW 5.0 mph 11.0 mph 57% 0.00 in 0 W/m2
19:39 22.8 °F 10.6 °F 30.01 in West 5.0 mph 11.0 mph 59% 0.00 in 0 W/m2
19:42 22.7 °F 10.9 °F 30.01 in SSW 5.0 mph 7.0 mph 60% 0.00 in 0 W/m2
19:48 22.6 °F 11.9 °F 30.01 in West 5.0 mph 7.0 mph 63% 0.00 in 0 W/m2
19:54 22.5 °F 12.5 °F 30.02 in SW 6.0 mph 10.0 mph 65% 0.00 in 0 W/m2
20:00 22.3 °F 13.3 °F 30.02 in WSW 6.0 mph 7.0 mph 68% 0.00 in 0 W/m2
20:06 22.2 °F 13.6 °F 30.03 in WSW 5.0 mph 7.0 mph 69% 0.00 in 0 W/m2
20:12 22.1 °F 13.8 °F 30.03 in WSW 5.0 mph 5.0 mph 70% 0.00 in 0 W/m2
20:18 22.0 °F 14.0 °F 30.03 in SW 6.0 mph 6.0 mph 71% 0.00 in 0 W/m2
20:24 22.0 °F 14.0 °F 30.03 in SW 5.0 mph 9.0 mph 71% 0.00 in 0 W/m2
20:30 22.0 °F 14.0 °F 30.03 in WSW 5.0 mph 6.0 mph 71% 0.00 in 0 W/m2
20:36 22.0 °F 14.3 °F 30.04 in West 6.0 mph 8.0 mph 72% 0.00 in 0 W/m2
20:40 21.9 °F 13.9 °F 30.05 in West 6.0 mph 10.0 mph 71% 0.00 in 0 W/m2
20:46 21.8 °F 13.8 °F 30.05 in WSW 6.0 mph 10.0 mph 71% 0.00 in 0 W/m2
20:52 21.8 °F 13.8 °F 30.05 in SW 6.0 mph 7.0 mph 71% 0.00 in 0 W/m2
20:58 21.8 °F 13.5 °F 30.05 in West 7.0 mph 9.0 mph 70% 0.00 in 0 W/m2
21:04 21.9 °F 13.6 °F 30.05 in West 7.0 mph 8.0 mph 70% 0.00 in 0 W/m2
21:08 21.9 °F 13.6 °F 30.06 in West 7.0 mph 8.0 mph 70% 0.00 in 0 W/m2
21:14 21.9 °F 13.6 °F 30.06 in West 7.0 mph 7.0 mph 70% 0.00 in 0 W/m2
21:20 21.8 °F 13.8 °F 30.06 in WSW 5.0 mph 12.0 mph 71% 0.00 in 0 W/m2
21:26 21.6 °F 14.0 °F 30.06 in West 6.0 mph 12.0 mph 72% 0.00 in 0 W/m2
21:34 21.5 °F 13.9 °F 30.06 in WSW 6.0 mph 11.0 mph 72% 0.00 in 0 W/m2
21:40 21.2 °F 13.6 °F 30.06 in West 6.0 mph 11.0 mph 72% 0.00 in 0 W/m2
21:46 21.0 °F 13.4 °F 30.06 in WSW 5.0 mph 11.0 mph 72% 0.00 in 0 W/m2
21:52 20.9 °F 13.0 °F 30.06 in WSW 5.0 mph 10.0 mph 71% 0.00 in 0 W/m2
21:58 20.8 °F 12.9 °F 30.06 in West 5.0 mph 10.0 mph 71% 0.00 in 0 W/m2
22:04 20.5 °F 12.6 °F 30.06 in WSW 4.0 mph 6.0 mph 71% 0.00 in 0 W/m2
22:10 20.4 °F 12.8 °F 30.06 in SW 4.0 mph 4.0 mph 72% 0.00 in 0 W/m2
22:18 20.3 °F 12.7 °F 30.07 in WSW 5.0 mph 7.0 mph 72% 0.00 in 0 W/m2
22:24 20.3 °F 12.7 °F 30.07 in SW 4.0 mph 9.0 mph 72% 0.00 in 0 W/m2
22:30 20.2 °F 12.3 °F 30.07 in WSW 5.0 mph 7.0 mph 71% 0.00 in 0 W/m2
22:36 20.2 °F 12.0 °F 30.08 in WSW 5.0 mph 8.0 mph 70% 0.00 in 0 W/m2
22:42 20.2 °F 11.7 °F 30.08 in WSW 5.0 mph 8.0 mph 69% 0.00 in 0 W/m2
22:48 20.2 °F 11.3 °F 30.08 in WSW 5.0 mph 8.0 mph 68% 0.00 in 0 W/m2
22:54 20.1 °F 11.2 °F 30.08 in WSW 4.0 mph 5.0 mph 68% 0.00 in 0 W/m2
23:00 20.0 °F 11.1 °F 30.08 in WSW 4.0 mph 4.0 mph 68% 0.00 in 0 W/m2
23:06 20.0 °F 11.1 °F 30.08 in SW 5.0 mph 6.0 mph 68% 0.00 in 0 W/m2
23:12 19.9 °F 11.0 °F 30.09 in West 5.0 mph 7.0 mph 68% 0.00 in 0 W/m2
23:18 19.9 °F 10.7 °F 30.09 in West 5.0 mph 7.0 mph 67% 0.00 in 0 W/m2
23:24 20.0 °F 10.5 °F 30.09 in WNW 5.0 mph 11.0 mph 66% 0.00 in 0 W/m2
23:30 19.9 °F 10.4 °F 30.09 in SW 6.0 mph 6.0 mph 66% 0.00 in 0 W/m2
23:36 19.7 °F 9.8 °F 30.09 in WSW 5.0 mph 7.0 mph 65% 0.00 in 0 W/m2
23:48 19.6 °F 9.4 °F 30.09 in WNW 6.0 mph 9.0 mph 64% 0.00 in 0 W/m2
23:54 19.5 °F 8.9 °F 30.09 in West 6.0 mph 7.0 mph 63% 0.00 in 0 W/m2
23:58 19.4 °F 8.8 °F 30.10 in WSW 6.0 mph 8.0 mph 63% 0.00 in 0 W/m2
Country Meadow, Clay, NY, USA
Compliments of Weather Underground - 2 mb